Time;durP1;ratioP1;P1;durP2;ratioP2;P2;SDS_P1;SDS_P2;PMS_P1;PMS_P2;Temp;Humidity;BMP_temperature;BMP_pressure;BME280_temperature;BME280_humidity;BME280_pressure;Samples;Min_cycle;Max_cycle;Signal;HPM_P1;HPM_P2
2022/03/25 00:01:00;;;;;;;16.95;6.63;;;;;;;;;;5093640;28;20390;-37
2022/03/25 00:03:26;;;;;;;15.45;7.53;;;;;;;;;;5093537;28;20446;-37
2022/03/25 00:05:52;;;;;;;12.63;6.47;;;;;;;;;;5093451;28;20035;-38
2022/03/25 00:08:17;;;;;;;12.38;6.72;;;;;;;;;;5093483;28;20459;-37
2022/03/25 00:10:43;;;;;;;11.73;7.47;;;;;;;;;;5093352;28;20043;-37
2022/03/25 00:13:09;;;;;;;22.25;7.70;;;;;;;;;;5093374;28;20020;-37
2022/03/25 00:15:35;;;;;;;13.70;7.72;;;;;;;;;;5093228;28;20056;-37
2022/03/25 00:18:00;;;;;;;14.15;8.48;;;;;;;;;;5093488;28;20108;-37
2022/03/25 00:20:26;;;;;;;15.25;7.05;;;;;;;;;;5092058;28;20381;-37
2022/03/25 00:22:51;;;;;;;17.85;8.00;;;;;;;;;;5093196;28;20522;-37
2022/03/25 00:25:17;;;;;;;14.82;7.38;;;;;;;;;;5093213;28;20024;-37
2022/03/25 00:27:42;;;;;;;14.38;8.27;;;;;;;;;;5093046;28;20497;-37
2022/03/25 00:30:08;;;;;;;16.08;7.72;;;;;;;;;;5091784;28;20028;-37
2022/03/25 00:32:35;;;;;;;14.15;6.50;;;;;;;;;;5092900;28;20424;-37
2022/03/25 00:35:00;;;;;;;12.40;7.18;;;;;;;;;;5091621;28;20024;-38
2022/03/25 00:37:26;;;;;;;12.32;6.88;;;;;;;;;;5092775;28;20030;-37
2022/03/25 00:39:52;;;;;;;11.65;7.03;;;;;;;;;;5092761;28;20028;-37
2022/03/25 00:42:17;;;;;;;12.07;7.53;;;;;;;;;;5092861;28;20012;-37
2022/03/25 00:44:44;;;;;;;19.13;8.07;;;;;;;;;;5092901;28;20210;-37
2022/03/25 00:47:10;;;;;;;15.38;8.20;;;;;;;;;;5092733;28;20023;-37
2022/03/25 00:49:38;;;;;;;13.13;6.75;;;;;;;;;;5091264;28;20497;-37
2022/03/25 00:52:04;;;;;;;13.15;7.82;;;;;;;;;;5091176;28;20182;-37
2022/03/25 00:54:30;;;;;;;15.20;7.30;;;;;;;;;;5091174;28;20031;-37
2022/03/25 00:56:56;;;;;;;16.50;6.93;;;;;;;;;;5092494;28;20050;-37
2022/03/25 00:59:22;;;;;;;12.98;6.47;;;;;;;;;;5092054;28;20063;-37
2022/03/25 01:01:48;;;;;;;14.48;6.72;;;;;;;;;;5092267;28;20462;-37
2022/03/25 01:04:13;;;;;;;17.08;7.60;;;;;;;;;;5091025;28;20097;-37
2022/03/25 01:06:39;;;;;;;19.30;7.70;;;;;;;;;;5091005;28;20432;-37
2022/03/25 01:09:05;;;;;;;14.02;7.20;;;;;;;;;;5092508;28;20043;-37
2022/03/25 01:11:31;;;;;;;14.50;7.70;;;;;;;;;;5090946;28;20024;-38
2022/03/25 01:13:58;;;;;;;13.48;6.53;;;;;;;;;;5090924;28;20081;-37
2022/03/25 01:16:24;;;;;;;16.00;8.35;;;;;;;;;;5090850;28;20035;-37
2022/03/25 01:18:50;;;;;;;16.55;7.78;;;;;;;;;;5090838;28;20036;-37
2022/03/25 01:21:17;;;;;;;18.55;9.27;;;;;;;;;;5092040;28;20012;-37
2022/03/25 01:23:44;;;;;;;13.02;6.65;;;;;;;;;;5091957;28;20507;-37
2022/03/25 01:26:09;;;;;;;20.30;8.68;;;;;;;;;;5090727;28;20023;-37
2022/03/25 01:28:35;;;;;;;15.38;7.07;;;;;;;;;;5091858;28;20028;-37
2022/03/25 01:31:04;;;;;;;12.15;6.95;;;;;;;;;;5073848;28;20508;-37
2022/03/25 01:33:33;;;;;;;13.57;6.83;;;;;;;;;;5090517;28;20040;-37
2022/03/25 01:36:00;;;;;;;13.55;7.72;;;;;;;;;;5090601;28;20468;-37
2022/03/25 01:38:26;;;;;;;18.30;8.10;;;;;;;;;;5091770;28;20036;-37
2022/03/25 01:40:52;;;;;;;15.45;7.97;;;;;;;;;;5090379;28;20020;-37
2022/03/25 01:43:17;;;;;;;17.98;8.65;;;;;;;;;;5090535;28;20024;-37
2022/03/25 01:45:42;;;;;;;17.02;8.55;;;;;;;;;;5090284;28;20027;-37
2022/03/25 01:48:09;;;;;;;16.90;7.78;;;;;;;;;;5091655;28;20063;-37
2022/03/25 01:50:35;;;;;;;15.48;6.47;;;;;;;;;;5091534;28;20027;-37
2022/03/25 01:53:01;;;;;;;11.82;6.93;;;;;;;;;;5091523;28;20051;-37
2022/03/25 01:55:27;;;;;;;17.90;7.65;;;;;;;;;;5091812;28;20050;-37
2022/03/25 01:57:57;;;;;;;16.77;7.30;;;;;;;;;;5090038;28;20424;-37
2022/03/25 02:00:23;;;;;;;19.05;7.65;;;;;;;;;;5090291;28;20081;-38
2022/03/25 02:02:49;;;;;;;16.40;7.45;;;;;;;;;;5091757;28;20024;-37
2022/03/25 02:05:15;;;;;;;13.70;7.03;;;;;;;;;;5090037;28;20470;-37
2022/03/25 02:07:41;;;;;;;16.15;7.10;;;;;;;;;;5091423;28;20032;-37
2022/03/25 02:10:07;;;;;;;17.92;7.93;;;;;;;;;;5091394;28;20028;-37
2022/03/25 02:12:35;;;;;;;14.90;7.13;;;;;;;;;;5089538;28;20035;-37
2022/03/25 02:15:01;;;;;;;13.55;8.05;;;;;;;;;;5090056;28;20039;-38
2022/03/25 02:17:26;;;;;;;15.15;7.55;;;;;;;;;;5091469;28;20028;-37
2022/03/25 02:19:52;;;;;;;16.27;7.95;;;;;;;;;;5091367;28;20406;-37
2022/03/25 02:22:17;;;;;;;18.95;9.32;;;;;;;;;;5089991;28;20016;-37
2022/03/25 02:24:43;;;;;;;12.68;8.00;;;;;;;;;;5089850;28;20130;-37
2022/03/25 02:27:10;;;;;;;18.88;8.10;;;;;;;;;;5089922;28;20446;-37
2022/03/25 02:29:37;;;;;;;14.38;6.45;;;;;;;;;;5089877;28;20114;-37
2022/03/25 02:32:02;;;;;;;16.27;7.80;;;;;;;;;;5091286;28;20020;-37
2022/03/25 02:34:28;;;;;;;16.70;7.40;;;;;;;;;;5089852;28;20371;-37
2022/03/25 02:36:53;;;;;;;13.32;7.20;;;;;;;;;;5089830;28;20405;-37
2022/03/25 02:39:19;;;;;;;15.15;7.70;;;;;;;;;;5089791;28;20130;-37
2022/03/25 02:41:46;;;;;;;11.35;6.03;;;;;;;;;;5089681;28;20024;-37
2022/03/25 02:44:12;;;;;;;16.05;6.80;;;;;;;;;;5089856;28;20173;-37
2022/03/25 02:46:42;;;;;;;15.75;7.68;;;;;;;;;;5089559;28;20119;-37
2022/03/25 02:49:08;;;;;;;13.50;7.15;;;;;;;;;;5089784;28;20111;-37
2022/03/25 02:51:33;;;;;;;16.55;7.53;;;;;;;;;;5090834;28;20044;-38
2022/03/25 02:53:58;;;;;;;20.50;7.95;;;;;;;;;;5090954;28;20153;-37
2022/03/25 02:56:24;;;;;;;16.17;8.20;;;;;;;;;;5091019;28;20036;-38
2022/03/25 02:58:50;;;;;;;14.98;7.32;;;;;;;;;;5091142;28;20032;-37
2022/03/25 03:01:15;;;;;;;19.10;8.25;;;;;;;;;;5091145;28;20031;-37
2022/03/25 03:03:41;;;;;;;19.58;7.68;;;;;;;;;;5090852;28;20050;-37
2022/03/25 03:06:07;;;;;;;19.92;8.07;;;;;;;;;;5090841;28;20558;-37
2022/03/25 03:08:35;;;;;;;11.50;6.63;;;;;;;;;;5090733;28;20405;-37
2022/03/25 03:11:01;;;;;;;14.23;7.10;;;;;;;;;;5090743;28;20024;-37
2022/03/25 03:13:26;;;;;;;15.23;7.90;;;;;;;;;;5090815;28;20059;-37
2022/03/25 03:15:52;;;;;;;15.80;7.15;;;;;;;;;;5090670;28;20047;-37
2022/03/25 03:18:17;;;;;;;19.65;8.73;;;;;;;;;;5090676;28;20065;-37
2022/03/25 03:20:43;;;;;;;12.50;6.20;;;;;;;;;;5091023;28;20020;-38
2022/03/25 03:23:09;;;;;;;15.13;5.70;;;;;;;;;;5091453;28;20028;-37
2022/03/25 03:25:35;;;;;;;15.52;7.68;;;;;;;;;;5094228;28;20429;-37
2022/03/25 03:28:00;;;;;;;15.48;7.68;;;;;;;;;;5094406;28;20040;-37
2022/03/25 03:30:26;;;;;;;16.08;7.80;;;;;;;;;;5094176;28;20065;-37
2022/03/25 03:32:55;;;;;;;11.18;6.63;;;;;;;;;;5094152;28;20028;-38
2022/03/25 03:35:21;;;;;;;15.65;8.13;;;;;;;;;;5094359;28;20066;-37
2022/03/25 03:37:46;;;;;;;14.98;7.05;;;;;;;;;;5093859;28;20493;-37
2022/03/25 03:40:14;;;;;;;19.30;8.52;;;;;;;;;;5094166;28;20031;-37
2022/03/25 03:42:40;;;;;;;16.83;7.45;;;;;;;;;;5094137;28;20035;-37
2022/03/25 03:45:07;;;;;;;18.63;7.70;;;;;;;;;;5093829;28;20530;-37
2022/03/25 03:47:33;;;;;;;17.15;7.82;;;;;;;;;;5093926;28;20024;-37
2022/03/25 03:49:58;;;;;;;18.45;8.73;;;;;;;;;;5093874;28;20077;-37
2022/03/25 03:52:23;;;;;;;13.82;9.00;;;;;;;;;;5093700;28;20525;-37
2022/03/25 03:54:49;;;;;;;15.95;8.15;;;;;;;;;;5093843;28;20061;-37
2022/03/25 03:57:37;;;;;;;21.58;7.70;;;;;;;;;;5093572;28;20135;-37
2022/03/25 04:00:04;;;;;;;19.42;8.38;;;;;;;;;;5094020;28;20021;-37
2022/03/25 04:02:39;;;;;;;13.27;8.60;;;;;;;;;;5093633;28;20025;-37
2022/03/25 04:05:05;;;;;;;15.60;8.00;;;;;;;;;;5093476;28;20114;-37
2022/03/25 04:07:30;;;;;;;15.70;7.47;;;;;;;;;;5093634;28;20015;-36
2022/03/25 04:09:56;;;;;;;18.60;8.55;;;;;;;;;;5093415;28;20028;-37
2022/03/25 04:12:22;;;;;;;15.98;8.35;;;;;;;;;;5093428;28;20549;-37
2022/03/25 04:14:48;;;;;;;16.73;8.18;;;;;;;;;;5093349;28;20036;-38
2022/03/25 04:17:13;;;;;;;17.85;8.85;;;;;;;;;;5093252;28;20028;-38
2022/03/25 04:19:39;;;;;;;15.88;8.10;;;;;;;;;;5093494;28;20024;-37
2022/03/25 04:22:05;;;;;;;15.05;8.00;;;;;;;;;;5093538;28;20355;-38
2022/03/25 04:24:31;;;;;;;15.48;7.47;;;;;;;;;;5093411;28;20382;-37
2022/03/25 04:26:56;;;;;;;16.13;7.70;;;;;;;;;;5092992;28;20012;-37
2022/03/25 04:29:22;;;;;;;21.25;8.35;;;;;;;;;;5093358;28;20032;-37
2022/03/25 04:31:48;;;;;;;12.35;6.97;;;;;;;;;;5093275;28;20103;-37
2022/03/25 04:34:13;;;;;;;18.52;7.70;;;;;;;;;;5092670;28;20459;-37
2022/03/25 04:36:39;;;;;;;15.10;8.35;;;;;;;;;;5093137;28;20478;-37
2022/03/25 04:39:04;;;;;;;12.50;7.57;;;;;;;;;;5092817;28;20558;-40
2022/03/25 04:41:29;;;;;;;12.90;7.07;;;;;;;;;;5092800;28;20012;-37
2022/03/25 04:43:55;;;;;;;17.20;7.03;;;;;;;;;;5092658;28;20126;-38
2022/03/25 04:46:20;;;;;;;15.85;6.80;;;;;;;;;;5092801;28;20095;-37
2022/03/25 04:48:45;;;;;;;12.98;6.68;;;;;;;;;;5092572;28;20116;-37
2022/03/25 04:51:11;;;;;;;15.90;7.63;;;;;;;;;;5092815;28;20050;-37
2022/03/25 04:53:37;;;;;;;15.93;7.40;;;;;;;;;;5092448;28;20089;-37
2022/03/25 04:56:03;;;;;;;16.10;7.75;;;;;;;;;;5092581;28;20625;-37
2022/03/25 04:58:28;;;;;;;13.93;6.85;;;;;;;;;;5092789;28;20067;-37
2022/03/25 05:00:54;;;;;;;15.07;6.95;;;;;;;;;;5092442;28;20016;-37
2022/03/25 05:03:20;;;;;;;14.48;7.47;;;;;;;;;;5092612;28;20394;-37
2022/03/25 05:05:45;;;;;;;18.42;7.35;;;;;;;;;;5092371;28;20016;-37
2022/03/25 05:08:11;;;;;;;22.60;6.68;;;;;;;;;;5092358;28;20043;-38
2022/03/25 05:10:40;;;;;;;13.60;7.40;;;;;;;;;;5092144;28;20029;-37
2022/03/25 05:13:05;;;;;;;16.15;7.03;;;;;;;;;;5092298;28;20085;-37
2022/03/25 05:15:30;;;;;;;13.95;6.38;;;;;;;;;;5092464;28;20024;-38
2022/03/25 05:17:56;;;;;;;15.93;7.95;;;;;;;;;;5092237;28;20492;-37
2022/03/25 05:20:22;;;;;;;19.35;8.20;;;;;;;;;;5092465;28;20016;-37
2022/03/25 05:22:48;;;;;;;10.45;6.05;;;;;;;;;;5092085;28;20122;-37
2022/03/25 05:25:13;;;;;;;12.23;5.95;;;;;;;;;;5092011;28;20020;-37
2022/03/25 05:27:51;;;;;;;15.85;7.13;;;;;;;;;;5091953;28;20039;-37
2022/03/25 05:30:20;;;;;;;14.93;7.78;;;;;;;;;;5091977;28;20082;-37
2022/03/25 05:32:45;;;;;;;14.93;6.57;;;;;;;;;;5092128;28;20115;-40
2022/03/25 05:35:11;;;;;;;13.32;7.45;;;;;;;;;;5091893;28;20530;-37
2022/03/25 05:37:37;;;;;;;17.90;7.88;;;;;;;;;;5091614;28;20032;-37
2022/03/25 05:40:03;;;;;;;15.82;7.35;;;;;;;;;;5091867;28;20111;-38
2022/03/25 05:42:28;;;;;;;13.32;7.32;;;;;;;;;;5092081;28;20111;-37
2022/03/25 05:44:54;;;;;;;17.90;7.20;;;;;;;;;;5091603;28;20383;-37
2022/03/25 05:47:19;;;;;;;16.88;7.18;;;;;;;;;;5091120;28;20020;-36
2022/03/25 05:49:45;;;;;;;13.20;7.07;;;;;;;;;;5091807;28;20035;-38
2022/03/25 05:52:11;;;;;;;13.95;7.72;;;;;;;;;;5091534;28;20041;-37
2022/03/25 05:54:37;;;;;;;19.15;7.55;;;;;;;;;;5091544;28;20031;-37
2022/03/25 05:57:02;;;;;;;15.25;8.95;;;;;;;;;;5091528;28;20513;-36
2022/03/25 05:59:28;;;;;;;18.05;8.00;;;;;;;;;;5091735;28;20040;-37
2022/03/25 06:01:53;;;;;;;14.05;6.53;;;;;;;;;;5091468;28;20048;-37
2022/03/25 06:04:20;;;;;;;15.73;7.40;;;;;;;;;;5091706;28;20145;-37
2022/03/25 06:06:45;;;;;;;17.85;7.82;;;;;;;;;;5091582;28;20012;-37
2022/03/25 06:09:11;;;;;;;13.52;7.13;;;;;;;;;;5091503;28;20666;-37
2022/03/25 06:11:36;;;;;;;15.13;6.70;;;;;;;;;;5091120;28;20137;-37
2022/03/25 06:14:02;;;;;;;17.25;6.80;;;;;;;;;;5091327;28;20051;-37
2022/03/25 06:16:28;;;;;;;14.25;6.72;;;;;;;;;;5091376;28;20165;-37
2022/03/25 06:18:55;;;;;;;15.07;8.30;;;;;;;;;;5091261;28;20129;-37
2022/03/25 06:21:21;;;;;;;13.95;6.38;;;;;;;;;;5091186;28;20020;-37
2022/03/25 06:23:46;;;;;;;16.48;7.47;;;;;;;;;;5090254;28;20035;-37
2022/03/25 06:26:11;;;;;;;13.40;7.00;;;;;;;;;;5091336;28;20019;-37
2022/03/25 06:28:37;;;;;;;18.00;7.82;;;;;;;;;;5091108;28;20055;-37
2022/03/25 06:31:02;;;;;;;16.10;7.32;;;;;;;;;;5091601;28;20054;-37
2022/03/25 06:33:28;;;;;;;14.18;8.45;;;;;;;;;;5091141;28;20028;-36
2022/03/25 06:35:54;;;;;;;13.65;7.30;;;;;;;;;;5091345;28;20030;-37
2022/03/25 06:38:19;;;;;;;13.40;6.75;;;;;;;;;;5091201;28;20036;-37
2022/03/25 06:40:45;;;;;;;19.60;7.05;;;;;;;;;;5091339;28;20039;-37
2022/03/25 06:43:10;;;;;;;16.42;8.23;;;;;;;;;;5091008;28;20028;-37
2022/03/25 06:45:36;;;;;;;17.65;7.90;;;;;;;;;;5091257;28;20013;-39
2022/03/25 06:48:02;;;;;;;17.00;7.35;;;;;;;;;;5089819;28;20367;-37
2022/03/25 06:50:28;;;;;;;18.33;6.95;;;;;;;;;;5091029;28;20046;-37
2022/03/25 06:52:54;;;;;;;19.73;7.80;;;;;;;;;;5090877;28;20513;-38
2022/03/25 06:55:19;;;;;;;16.15;8.35;;;;;;;;;;5091029;28;20101;-37
2022/03/25 06:57:45;;;;;;;12.77;7.53;;;;;;;;;;5092810;28;20032;-37
2022/03/25 07:00:12;;;;;;;21.45;7.65;;;;;;;;;;5094866;28;20482;-37
2022/03/25 07:02:41;;;;;;;13.15;7.25;;;;;;;;;;5094721;28;20020;-37
2022/03/25 07:05:07;;;;;;;15.02;7.18;;;;;;;;;;5094665;28;20028;-37
2022/03/25 07:07:36;;;;;;;14.18;7.43;;;;;;;;;;5094716;28;20474;-38
2022/03/25 07:10:01;;;;;;;13.85;7.32;;;;;;;;;;5094563;28;20028;-37
2022/03/25 07:12:27;;;;;;;18.83;7.05;;;;;;;;;;5094917;28;20069;-38
2022/03/25 07:14:52;;;;;;;19.45;8.02;;;;;;;;;;5094490;28;20489;-37
2022/03/25 07:17:18;;;;;;;20.42;8.65;;;;;;;;;;5094757;28;20121;-36
2022/03/25 07:19:43;;;;;;;20.98;8.80;;;;;;;;;;5094647;28;20028;-37
2022/03/25 07:22:09;;;;;;;16.38;8.65;;;;;;;;;;5094509;28;20038;-37
2022/03/25 07:24:34;;;;;;;15.23;7.55;;;;;;;;;;5094525;28;20408;-37
2022/03/25 07:26:59;;;;;;;19.20;8.77;;;;;;;;;;5094286;28;20550;-38
2022/03/25 07:29:25;;;;;;;19.17;6.93;;;;;;;;;;5094244;28;20070;-37
2022/03/25 07:31:51;;;;;;;16.00;7.55;;;;;;;;;;5094182;28;20061;-37
2022/03/25 07:34:16;;;;;;;18.70;6.85;;;;;;;;;;5094234;28;20118;-37
2022/03/25 07:36:42;;;;;;;14.95;7.35;;;;;;;;;;5094341;28;20161;-37
2022/03/25 07:39:07;;;;;;;12.85;6.90;;;;;;;;;;5094266;28;20177;-37
2022/03/25 07:41:34;;;;;;;18.27;7.38;;;;;;;;;;5094089;28;20061;-37
2022/03/25 07:43:59;;;;;;;16.00;7.80;;;;;;;;;;5092749;28;20032;-37
2022/03/25 07:46:25;;;;;;;17.83;8.70;;;;;;;;;;5094209;28;20474;-38
2022/03/25 07:48:50;;;;;;;12.88;5.70;;;;;;;;;;5094079;28;20378;-37
2022/03/25 07:51:16;;;;;;;16.20;7.18;;;;;;;;;;5094021;28;20050;-37
2022/03/25 07:53:42;;;;;;;15.63;7.28;;;;;;;;;;5093661;28;20046;-37
2022/03/25 07:56:07;;;;;;;16.40;7.10;;;;;;;;;;5094047;28;20028;-37
2022/03/25 07:58:33;;;;;;;14.95;7.53;;;;;;;;;;5093794;28;20477;-37
2022/03/25 08:00:58;;;;;;;13.98;7.85;;;;;;;;;;5092547;28;20029;-37
2022/03/25 08:03:24;;;;;;;13.70;7.25;;;;;;;;;;5093610;28;20397;-37
2022/03/25 08:05:50;;;;;;;14.05;7.00;;;;;;;;;;5093803;28;20024;-37
2022/03/25 08:08:18;;;;;;;20.38;6.72;;;;;;;;;;5093621;28;20028;-37
2022/03/25 08:10:43;;;;;;;11.32;6.50;;;;;;;;;;5093037;28;20031;-37
2022/03/25 08:13:10;;;;;;;15.32;7.72;;;;;;;;;;5093658;28;20039;-37
2022/03/25 08:15:36;;;;;;;19.60;7.60;;;;;;;;;;5093366;28;20081;-37
2022/03/25 08:18:01;;;;;;;11.43;6.50;;;;;;;;;;5093821;28;20119;-37
2022/03/25 08:20:28;;;;;;;11.90;6.70;;;;;;;;;;5093619;28;20107;-37
2022/03/25 08:22:57;;;;;;;13.57;7.63;;;;;;;;;;5093468;28;20533;-37
2022/03/25 08:28:08;;;;;;;15.00;7.05;;;;;;;;;;5093409;28;20032;-37
2022/03/25 08:30:33;;;;;;;14.23;6.93;;;;;;;;;;5093451;28;20028;-37
2022/03/25 08:33:00;;;;;;;13.70;5.97;;;;;;;;;;5093177;28;20032;-37
2022/03/25 08:35:25;;;;;;;20.88;6.35;;;;;;;;;;5093239;28;20028;-37
2022/03/25 08:37:53;;;;;;;17.48;6.47;;;;;;;;;;5092777;28;20585;-37
2022/03/25 08:40:19;;;;;;;19.05;6.90;;;;;;;;;;5093277;28;20048;-37
2022/03/25 08:42:45;;;;;;;13.43;5.90;;;;;;;;;;5092682;28;20035;-37
2022/03/25 08:45:13;;;;;;;12.38;6.18;;;;;;;;;;5093024;28;20020;-37
2022/03/25 08:47:39;;;;;;;12.93;6.00;;;;;;;;;;5092840;28;20070;-38
2022/03/25 08:50:05;;;;;;;14.57;5.95;;;;;;;;;;5092749;28;20023;-37
2022/03/25 08:52:31;;;;;;;17.70;6.28;;;;;;;;;;5092482;28;20036;-37
2022/03/25 08:54:57;;;;;;;13.40;6.00;;;;;;;;;;5092418;28;20039;-37
2022/03/25 08:57:23;;;;;;;15.65;6.43;;;;;;;;;;5092555;28;20023;-38
2022/03/25 08:59:49;;;;;;;12.27;5.88;;;;;;;;;;5092747;28;20016;-37
2022/03/25 09:02:17;;;;;;;11.60;5.65;;;;;;;;;;5092525;28;20036;-37
2022/03/25 09:04:44;;;;;;;16.30;6.43;;;;;;;;;;5092248;28;20472;-37
2022/03/25 09:07:16;;;;;;;14.88;7.00;;;;;;;;;;5092463;28;20020;-37
2022/03/25 09:09:47;;;;;;;10.18;6.07;;;;;;;;;;5092398;28;20100;-37
2022/03/25 09:12:13;;;;;;;14.93;6.40;;;;;;;;;;5092307;28;20028;-37
2022/03/25 09:14:39;;;;;;;14.32;6.65;;;;;;;;;;5092326;28;20074;-37
2022/03/25 09:17:08;;;;;;;11.43;5.07;;;;;;;;;;5092292;28;20066;-37
2022/03/25 09:19:34;;;;;;;12.15;7.10;;;;;;;;;;5092040;28;20040;-37
2022/03/25 09:22:00;;;;;;;13.80;6.75;;;;;;;;;;5089949;28;20123;-37
2022/03/25 09:24:26;;;;;;;14.10;7.38;;;;;;;;;;5090729;28;20098;-37
2022/03/25 09:26:52;;;;;;;9.25;6.03;;;;;;;;;;5091968;28;20024;-37
2022/03/25 09:29:17;;;;;;;10.07;5.72;;;;;;;;;;5092100;28;20070;-37
2022/03/25 09:31:43;;;;;;;13.75;6.15;;;;;;;;;;5092187;28;20179;-37
2022/03/25 09:36:54;;;;;;;10.20;6.30;;;;;;;;;;5091853;28;20028;-37
2022/03/25 09:39:21;;;;;;;11.95;6.07;;;;;;;;;;5091968;28;20024;-37
2022/03/25 09:41:46;;;;;;;10.18;5.90;;;;;;;;;;5091679;28;20436;-37
2022/03/25 09:44:15;;;;;;;13.18;6.28;;;;;;;;;;5091774;28;20386;-37
2022/03/25 09:46:42;;;;;;;15.90;6.18;;;;;;;;;;5091575;28;20559;-37
2022/03/25 09:49:09;;;;;;;13.43;6.22;;;;;;;;;;5092043;28;20020;-37
2022/03/25 09:51:36;;;;;;;12.75;5.78;;;;;;;;;;5091053;28;20028;-37
2022/03/25 09:54:02;;;;;;;11.52;5.53;;;;;;;;;;5091758;28;20394;-37
2022/03/25 09:56:29;;;;;;;12.60;6.15;;;;;;;;;;5091654;28;20020;-37
2022/03/25 09:58:55;;;;;;;11.05;5.63;;;;;;;;;;5090174;28;20024;-37
2022/03/25 10:01:20;;;;;;;18.75;5.57;;;;;;;;;;5091744;28;20032;-37
2022/03/25 10:03:47;;;;;;;15.40;6.80;;;;;;;;;;5091648;28;20042;-37
2022/03/25 10:06:16;;;;;;;12.10;5.15;;;;;;;;;;5091527;28;20027;-37
2022/03/25 10:08:43;;;;;;;14.15;6.43;;;;;;;;;;5091292;28;20036;-37
2022/03/25 10:11:19;;;;;;;10.88;5.95;;;;;;;;;;5091699;28;20108;-38
2022/03/25 10:13:46;;;;;;;10.18;5.15;;;;;;;;;;5090093;28;20414;-37
2022/03/25 10:16:28;;;;;;;11.23;5.40;;;;;;;;;;5091296;28;20052;-37
2022/03/25 10:18:56;;;;;;;11.93;4.85;;;;;;;;;;5091152;28;20119;-37
2022/03/25 10:21:22;;;;;;;16.30;7.18;;;;;;;;;;5091367;28;20025;-37
2022/03/25 10:23:48;;;;;;;15.90;6.63;;;;;;;;;;5091356;28;20039;-37
2022/03/25 10:26:14;;;;;;;12.07;6.88;;;;;;;;;;5091640;28;20450;-37
2022/03/25 10:28:42;;;;;;;12.80;6.45;;;;;;;;;;5091214;28;20039;-37
2022/03/25 10:31:13;;;;;;;13.43;5.85;;;;;;;;;;5091280;28;20020;-37
2022/03/25 10:33:45;;;;;;;13.05;5.68;;;;;;;;;;5093386;28;20036;-37
2022/03/25 10:36:12;;;;;;;14.27;5.45;;;;;;;;;;5094074;28;20066;-37
2022/03/25 10:38:48;;;;;;;13.60;5.93;;;;;;;;;;5095226;28;20024;-37
2022/03/25 10:41:16;;;;;;;11.65;5.15;;;;;;;;;;5095299;28;20032;-37
2022/03/25 10:44:03;;;;;;;11.18;5.53;;;;;;;;;;5094895;28;20021;-37
2022/03/25 10:46:39;;;;;;;11.93;6.35;;;;;;;;;;5095224;28;20435;-37
2022/03/25 10:49:05;;;;;;;15.77;6.50;;;;;;;;;;5093846;28;20032;-37
2022/03/25 10:51:33;;;;;;;13.73;5.35;;;;;;;;;;5094823;28;20040;-37
2022/03/25 10:54:01;;;;;;;13.45;6.55;;;;;;;;;;5094823;28;20378;-37
2022/03/25 10:56:27;;;;;;;8.25;4.88;;;;;;;;;;5095035;28;20096;-37
2022/03/25 10:58:55;;;;;;;11.30;5.22;;;;;;;;;;5094707;28;20040;-37
2022/03/25 11:01:21;;;;;;;9.60;5.78;;;;;;;;;;5094896;28;20020;-37
2022/03/25 11:03:51;;;;;;;12.73;6.43;;;;;;;;;;5093762;28;20111;-37
2022/03/25 11:06:21;;;;;;;10.35;5.22;;;;;;;;;;5094568;28;20016;-37
2022/03/25 11:08:51;;;;;;;11.77;5.75;;;;;;;;;;5094228;28;20043;-36
2022/03/25 11:11:18;;;;;;;9.30;4.82;;;;;;;;;;5094646;28;20490;-37
2022/03/25 11:13:45;;;;;;;11.90;5.40;;;;;;;;;;5094664;28;20743;-37
2022/03/25 11:16:12;;;;;;;10.18;5.78;;;;;;;;;;5094817;28;20466;-37
2022/03/25 11:18:41;;;;;;;9.85;5.90;;;;;;;;;;5094504;28;20040;-37
2022/03/25 11:21:10;;;;;;;9.05;5.75;;;;;;;;;;5094449;28;20070;-36
2022/03/25 11:23:45;;;;;;;10.57;5.18;;;;;;;;;;5094329;28;20120;-36
2022/03/25 11:26:13;;;;;;;10.48;4.65;;;;;;;;;;5094388;28;20031;-37
2022/03/25 11:28:42;;;;;;;9.75;5.25;;;;;;;;;;5094249;28;20044;-37
2022/03/25 11:31:08;;;;;;;9.85;5.25;;;;;;;;;;5094385;28;20107;-37
2022/03/25 11:33:52;;;;;;;9.57;4.85;;;;;;;;;;5094146;28;20443;-37
2022/03/25 11:36:19;;;;;;;10.15;5.13;;;;;;;;;;5094234;28;20390;-37
2022/03/25 11:38:45;;;;;;;13.32;5.22;;;;;;;;;;5092786;28;20477;-37
2022/03/25 11:41:26;;;;;;;12.45;5.20;;;;;;;;;;5094083;28;20039;-37
2022/03/25 11:44:11;;;;;;;7.45;4.90;;;;;;;;;;5092806;28;20032;-38
2022/03/25 11:46:57;;;;;;;13.00;6.75;;;;;;;;;;5093962;28;20180;-37
2022/03/25 11:49:22;;;;;;;7.80;5.40;;;;;;;;;;5092570;28;20028;-38
2022/03/25 11:51:48;;;;;;;17.58;6.35;;;;;;;;;;5093647;28;20032;-37
2022/03/25 11:54:32;;;;;;;12.82;5.35;;;;;;;;;;5093840;28;20048;-37
2022/03/25 11:56:59;;;;;;;10.73;4.80;;;;;;;;;;5093693;28;20040;-37
2022/03/25 11:59:25;;;;;;;8.68;4.50;;;;;;;;;;5093677;28;20032;-37
2022/03/25 12:02:11;;;;;;;11.70;5.28;;;;;;;;;;5092427;28;20073;-37
2022/03/25 12:04:38;;;;;;;10.07;5.07;;;;;;;;;;5093427;28;20386;-37
2022/03/25 12:07:08;;;;;;;10.60;5.50;;;;;;;;;;5092116;28;20031;-37
2022/03/25 12:09:35;;;;;;;9.15;4.80;;;;;;;;;;5093573;28;20038;-37
2022/03/25 12:12:04;;;;;;;12.35;6.00;;;;;;;;;;5093780;28;20374;-37
2022/03/25 12:14:31;;;;;;;13.38;6.22;;;;;;;;;;5092226;28;20394;-37
2022/03/25 12:17:01;;;;;;;13.05;6.50;;;;;;;;;;5093344;28;20463;-38
2022/03/25 12:19:29;;;;;;;12.57;6.18;;;;;;;;;;5093245;28;20027;-37
2022/03/25 12:22:05;;;;;;;7.72;5.18;;;;;;;;;;5093229;28;20031;-37
2022/03/25 12:24:31;;;;;;;11.88;6.00;;;;;;;;;;5091865;28;20386;-37
2022/03/25 12:27:02;;;;;;;13.02;5.82;;;;;;;;;;5091463;28;20043;-37
2022/03/25 12:29:48;;;;;;;11.43;5.78;;;;;;;;;;5093159;28;20110;-37
2022/03/25 12:32:16;;;;;;;8.95;5.13;;;;;;;;;;5093069;28;20020;-37
2022/03/25 12:34:43;;;;;;;8.50;4.57;;;;;;;;;;5093090;28;20085;-38
2022/03/25 12:37:19;;;;;;;9.80;5.50;;;;;;;;;;5092968;28;20036;-37
2022/03/25 12:39:49;;;;;;;12.88;6.15;;;;;;;;;;5092924;28;20035;-37
2022/03/25 12:42:14;;;;;;;12.23;6.32;;;;;;;;;;5093292;28;20082;-37
2022/03/25 12:44:41;;;;;;;12.38;5.82;;;;;;;;;;5092809;28;20427;-37
2022/03/25 12:47:06;;;;;;;9.20;4.82;;;;;;;;;;5092775;28;20069;-37
2022/03/25 12:49:34;;;;;;;9.07;5.90;;;;;;;;;;5092874;28;20028;-37
2022/03/25 12:52:01;;;;;;;9.25;5.63;;;;;;;;;;5092339;28;20044;-37
2022/03/25 12:54:31;;;;;;;11.85;6.57;;;;;;;;;;5092648;28;20464;-37
2022/03/25 12:56:58;;;;;;;9.10;5.90;;;;;;;;;;5092633;28;20024;-37
2022/03/25 12:59:27;;;;;;;14.02;5.85;;;;;;;;;;5092470;28;20046;-37
2022/03/25 13:01:55;;;;;;;10.85;5.28;;;;;;;;;;5092469;28;20084;-37
2022/03/25 13:04:28;;;;;;;11.70;6.55;;;;;;;;;;5092520;28;20031;-37
2022/03/25 13:06:58;;;;;;;10.63;6.07;;;;;;;;;;5092603;28;20034;-37
2022/03/25 13:09:24;;;;;;;14.25;5.55;;;;;;;;;;5092699;28;20036;-37
2022/03/25 13:11:56;;;;;;;10.07;5.32;;;;;;;;;;5092235;28;20023;-38
2022/03/25 13:14:23;;;;;;;11.75;5.55;;;;;;;;;;5092098;28;20678;-38
2022/03/25 13:16:49;;;;;;;13.43;6.40;;;;;;;;;;5092220;28;20020;-37
2022/03/25 13:19:15;;;;;;;12.00;6.40;;;;;;;;;;5092185;28;20505;-37
2022/03/25 13:21:42;;;;;;;9.88;5.25;;;;;;;;;;5092141;28;20016;-37
2022/03/25 13:24:08;;;;;;;11.23;5.65;;;;;;;;;;5091909;28;20036;-38
2022/03/25 13:26:36;;;;;;;9.32;4.85;;;;;;;;;;5092381;28;20445;-37
2022/03/25 13:29:03;;;;;;;19.02;3.70;;;;;;;;;;5091917;28;20424;-37
2022/03/25 13:31:28;;;;;;;14.88;5.57;;;;;;;;;;5092050;28;20020;-37
2022/03/25 13:33:55;;;;;;;11.60;6.45;;;;;;;;;;5091900;28;20089;-38
2022/03/25 13:36:28;;;;;;;9.63;5.88;;;;;;;;;;5092011;28;20026;-37
2022/03/25 13:38:54;;;;;;;9.77;4.95;;;;;;;;;;5091726;28;20068;-37
2022/03/25 13:41:22;;;;;;;11.30;5.68;;;;;;;;;;5091812;28;20023;-37
2022/03/25 13:43:53;;;;;;;12.20;5.68;;;;;;;;;;5091871;28;20031;-37
2022/03/25 13:46:20;;;;;;;9.27;5.93;;;;;;;;;;5091896;28;20043;-37
2022/03/25 13:48:48;;;;;;;10.70;4.93;;;;;;;;;;5091591;28;20489;-37
2022/03/25 13:51:18;;;;;;;14.23;5.93;;;;;;;;;;5091595;28;20078;-37
2022/03/25 13:53:45;;;;;;;13.88;6.93;;;;;;;;;;5091535;28;20044;-37
2022/03/25 13:56:19;;;;;;;10.00;5.53;;;;;;;;;;5091648;28;20543;-37
2022/03/25 13:58:58;;;;;;;11.20;6.03;;;;;;;;;;5091730;28;20482;-37
2022/03/25 14:01:36;;;;;;;9.15;5.32;;;;;;;;;;5091553;28;20115;-37
2022/03/25 14:04:07;;;;;;;11.25;6.10;;;;;;;;;;5091596;28;20107;-38
2022/03/25 14:06:35;;;;;;;11.73;5.72;;;;;;;;;;5091148;28;20055;-37
2022/03/25 14:09:04;;;;;;;10.15;5.78;;;;;;;;;;5091279;28;20032;-37
2022/03/25 14:11:33;;;;;;;12.00;5.63;;;;;;;;;;5091290;28;20481;-37
2022/03/25 14:13:59;;;;;;;14.75;6.85;;;;;;;;;;5091571;28;20035;-37
2022/03/25 14:16:28;;;;;;;10.10;5.80;;;;;;;;;;5091406;28;20012;-38
2022/03/25 14:18:56;;;;;;;12.15;6.75;;;;;;;;;;5091168;28;20048;-37
2022/03/25 14:21:22;;;;;;;10.93;5.70;;;;;;;;;;5091361;28;20016;-37
2022/03/25 14:23:48;;;;;;;17.85;6.13;;;;;;;;;;5091183;28;20024;-37
2022/03/25 14:26:17;;;;;;;16.27;5.88;;;;;;;;;;5091329;28;20442;-37
2022/03/25 14:28:43;;;;;;;14.95;6.45;;;;;;;;;;5091312;28;20039;-38
2022/03/25 14:31:09;;;;;;;10.77;6.05;;;;;;;;;;5091140;28;20608;-37
2022/03/25 14:33:36;;;;;;;11.98;6.30;;;;;;;;;;5091172;28;20162;-37
2022/03/25 14:36:02;;;;;;;12.25;6.70;;;;;;;;;;5089915;28;20381;-37